Tiempo atmosférico en la estación meteorológica de San Clemente, Cuenca (728 m.)



Fecha
DESCASC
Temp. máxima en grados centígrados (hora)
DESCASC
Temp. mínima en grados centígrados (hora)
DESCASC
Temp. media en grados centígrados
DESCASC
Racha de viento máxima en m/sg (hora)
DESCASC
Velocidad máxima media en intervalos de 10 minutos(hora)
DESCASC
Precipitaciones diarias en mm
DESCASC
Precipitaciones de 00:00 a 06:00 en mm
DESCASC
Precipitaciones de 06:00 a 12:00 en mm
DESCASC
Precipitaciones de 12:00 a 18:00 en mm
DESCASC
Precipitaciones de 18:00 a 24:00 en mm
DESCASC
16-02-2020 18.5 (16:20) 1.7 (07:00) 10.1 8.61 (16:30) 5.56 (17:10) 0 0 0 0 0
15-02-2020 17.7 (16:30) 1.4 (08:10) 9.6 6.39 (15:30) 3.89 (15:10) 0 0 0 0 0
14-02-2020 15.9 (17:00) 2.1 (05:50) 9 4.72 (17:40) 3.33 (02:00) 0 0 0 0 0
13-02-2020 14.9 (13:50) 6 (00:00) 10.4 9.17 (14:10) 6.11 (17:00) 0.2 0 0.2 0 0
12-02-2020 13 (16:10) 7.8 (00:00) 10.4 5.83 (00:30) 3.89 (00:30) 0 0 0 0 0
11-02-2020 14.9 (16:20) 4.5 (00:00) 9.7 8.33 (16:40) 6.11 (17:30) 0 0 0 0 0
10-02-2020 16.3 (16:00) 2.6 (00:00) 9.4 9.17 (13:20) 6.11 (15:40) 0 0 0 0 0
09-02-2020 13 (17:20) 2.7 (00:00) 7.9 5.83 (14:20) 3.89 (13:40) 0 0 0 0 0
08-02-2020 14.2 (16:00) 3.5 (00:00) 8.8 10.28 (18:10) 6.94 (18:00) 0.8 0 0 0 0.8
07-02-2020 12.9 (16:50) 5.1 (00:00) 9 7.78 (03:50) 4.17 (01:40) 0 0 0 0 0
06-02-2020 12.7 (16:30) 5.4 (00:00) 9 11.39 (12:40) 6.67 (13:30) 0 0 0 0 0
05-02-2020 13.4 (16:20) 1.4 (00:00) 7.4 9.44 (12:10) 5.83 (11:50) 0 0 0 0 0
04-02-2020 18.1 (16:30) 1.6 (00:00) 9.9 8.33 (12:40) 6.39 (13:30) 0 0 0 0 0
03-02-2020 19.6 (16:30) 1.5 (08:10) 10.6 5.28 (22:10) 4.72 (22:10) 0 0 0 0 0
02-02-2020 15.2 (16:30) 6.3 (00:00) 10.8 6.67 (06:30) 4.72 (06:30) 0 0 0 0 0
01-02-2020 15.9 (17:10) 8.7 (00:00) 12.3 11.39 (13:10) 8.89 (13:10) 0.2 0 0.2 0 0
31-01-2020 12.7 (15:10) 6.7 (00:00) 9.7 9.72 (10:10) 7.22 (10:20) 0 0 0 0 0
30-01-2020 13 (15:30) 5.4 (00:00) 9.2 11.11 (17:20) 8.06 (17:00) 0 0 0 0 0
29-01-2020 13.2 (16:20) 6.8 (00:00) 10 10 (04:40) 7.22 (04:10) 0 0 0 0 0
28-01-2020 11.1 (15:20) 7.4 (00:00) 9.3 13.33 (13:00) 8.89 (13:10) 0 0 0 0 0
27-01-2020 10.2 (16:00) 1.3 (00:00) 5.7 14.17 (15:00) 9.72 (15:00) 0 0 0 0 0
26-01-2020 10.8 (16:20) 2.6 (00:00) 6.7 8.89 (12:10) 5.83 (12:00) 0.2 0.2 0 0 0
25-01-2020 8.4 (15:00) 6.1 (00:00) 7.2 8.06 (00:20) 4.72 (12:50) 4.8 1 0.4 2.6 0.8
24-01-2020 8.9 (15:50) 3.8 (00:00) 6.3 8.61 (05:10) 5.28 (06:30) 0 0 0 0 0
23-01-2020 10.1 (15:10) 0 (00:00) 5.1 10.83 (10:40) 5.56 (10:40) 0 0 0 0 0
22-01-2020 10 (15:30) 2.1 (00:00) 6 11.67 (11:20) 7.22 (11:10) 1.2 1.2 0 0 0

Gráficas

Temp. máximas Temp. mínimas Temp. medias Precipitaciones Rachas de viento máximas Velocidades máximas media en intervalos de 10 minutos

Datos horarios

Fecha y hora oficial Temperatura (ºC) Velocidad del viento (km/h) Dirección del viento Racha (km/h) Dirección de racha Precipitación (mm) Presión (hPa) Tendencia (hPa) Humedad (%)
2020-02-20 23:00:00 4.1 6 Sudeste 17 Este 0 941.3 1.4 73
2020-02-20 22:00:00 5.4 11 Este 17 Este 0 940.7 1.6 69
2020-02-20 21:00:00 5.8 11 Este 13 Este 0 940.1 1.5 68
2020-02-20 20:00:00 9.1 4 Sudeste 7 Oeste 0 939.9 1.6 56
2020-02-20 19:00:00 12.9 6 Oeste 11 Sudoeste 0 939.1 0.7 42
2020-02-20 18:00:00 15.8 7 Sur 15 Sur 0 938.6 0.2 30
2020-02-20 17:00:00 16.4 8 Sur 15 Sur 0 938.3 -0.8 28
2020-02-20 16:00:00 15.9 6 Sur 18 Sur 0 938.4 -1.6 35
2020-02-20 15:00:00 14.6 7 Sudeste 16 Sudeste 0 938.4 -2.4 45
2020-02-20 14:00:00 12.7 5 Sudoeste 17 Sur 0 939.1 -1.8 61
2020-02-20 13:00:00 9.8 8 Sur 18 Sur 0 940 -0.8 78
2020-02-20 12:00:00 6.3 9 Sudoeste 19 Sur 0 940.8 0.3 95
2020-02-20 11:00:00 5.2 9 Sudoeste 19 Sudoeste 0 940.9 0.5 98
2020-02-20 10:00:00 4.6 10 Sur 19 Sur 0 940.8 0.6 99
2020-02-20 09:00:00 4.3 7 Sur 16 Sur 0 940.5 0.2 98
2020-02-20 08:00:00 4.2 9 Sur 16 Sur 0 940.4 0.1 98
2020-02-20 07:00:00 3 6 Sudeste 15 Este 0 940.2 -0.8 98
2020-02-20 06:00:00 2.4 8 Este 15 Sudeste 0 940.3 -1.2 98
2020-02-20 05:00:00 2.5 11 Sudeste 16 Sudeste 0 940.3 -1.6 97
2020-02-20 04:00:00 1.7 9 Este 14 Sudeste 0 941 -1.1 93
2020-02-20 03:00:00 2 9 Sudeste 15 Sudeste 0 941.5 -1.2 90
2020-02-20 02:00:00 2.8 10 Este 15 Este 0 941.9 -1.2 89
2020-02-20 01:00:00 3 7 Este 14 Este 0 942.1 -1.1 86
2020-02-20 00:00:00 3.6 8 Este 12 Este 0 942.7 -0.4 85
2020-02-19 23:00:00 4.6 5 Este 12 Este 0 943.1 -0.1 82
2020-02-19 22:00:00 6.3 8 Este 11 Este 0 943.2 0.1 77
2020-02-19 21:00:00 7.4 6 Este 9 Oeste 0 943.1 0.1 72
2020-02-19 20:00:00 10.4 8 Oeste 13 Oeste 0 943.2 0.1 62
2020-02-19 19:00:00 12.3 9 Oeste 17 Oeste 0 943.1 -0.4 55
2020-02-19 18:00:00 14.7 4 Sudoeste 12 Oeste 0 943 -1 39
2020-02-19 17:00:00 15.3 4 Sur 18 Sur 0 943.1 -1.8 38
2020-02-19 16:00:00 15.3 9 Sudeste 22 Sudeste 0 943.5 -2.2 40
2020-02-19 15:00:00 14.4 6 Sur 15 Sur 0 944 -2.6 48
2020-02-19 14:00:00 13.4 8 Sudeste 17 Sudeste 0 944.9 -1.6 58
2020-02-19 13:00:00 12 5 Sudeste 16 Sur 0 945.7 -0.6 69
2020-02-19 12:00:00 10.2 9 Este 21 Este 0 946.6 1.2 78
2020-02-19 11:00:00 8.3 10 Sudeste 18 Sudeste 0 946.5 1.5 84
2020-02-19 10:00:00 6.4 11 Sudeste 19 Este 0 946.3 1.4 92
2020-02-19 09:00:00 5.7 8 Sudeste 13 Este 0 945.4 0.3 89
2020-02-19 08:00:00 4.6 7 Sur 9 Sudeste 0 945 0 96
2020-02-19 07:00:00 5.6 4 Sur 13 Sudeste 0 944.9 0.1 94
2020-02-19 06:00:00 7.1 8 Sudeste 13 Sudeste 0 945.1 0.1 94
2020-02-19 05:00:00 8.1 6 Sudeste 17 Este 0 945 0 92
2020-02-19 04:00:00 8.7 4 Sur 12 Sudeste 0 944.8 -0.3 94
2020-02-19 03:00:00 8.7 8 Sudeste 24 Sudeste 0 945 -0.1 94
2020-02-19 02:00:00 8.8 18 Sudeste 25 Sudeste 0 945 0.1 92
2020-02-19 01:00:00 8.4 8 Este 13 Sudeste 0 945.1 0.2 93
2020-02-19 00:00:00 8.4 9 Sudeste 22 Sudeste 0 945.1 0.5 92
2020-02-18 23:00:00 8.3 15 Sudeste 21 Sudeste 0 944.9 0.6 95
2020-02-18 22:00:00 7.4 10 Sudeste 17 Sudeste 0 944.9 1 94
2020-02-18 21:00:00 8 10 Sudeste 17 Sur 0 944.6 1.1 93
2020-02-18 20:00:00 8.7 10 Sudeste 22 Sudeste 0 944.3 1.2 91
2020-02-18 19:00:00 9.9 13 Sur 26 Sur 0 943.9 0.7 86
2020-02-18 18:00:00 10.6 18 Sur 30 Sur 0 943.5 0.2 84
2020-02-18 17:00:00 11.3 15 Sur 31 Sur 0 943.1 -1.2 79
2020-02-18 16:00:00 11.7 21 Sur 35 Sur 0 943.2 -1.7 78
2020-02-18 15:00:00 11.5 20 Sur 36 Sudoeste 0 943.3 -2 79
2020-02-18 14:00:00 10.3 15 Sur 31 Sudoeste 0 944.3 -1.2 84
2020-02-18 13:00:00 10.1 17 Sur 36 Sudoeste 0 944.9 -0.5 84
2020-02-18 12:00:00 10.5 18 Sur 40 Sur 0 945.3 0.3 81
2020-02-18 11:00:00 9.7 17 Sur 32 Sur 0 945.5 1.1 84
2020-02-18 10:00:00 8.9 18 Sur 32 Sur 0 945.4 1.3 83
2020-02-18 09:00:00 8.7 18 Sur 39 Sur 0 945 1.1 83
2020-02-18 08:00:00 8.7 23 Sur 38 Sur 0 944.4 0.7 90
2020-02-18 07:00:00 9 21 Sur 33 Sur 0 944.1 0.6 92
2020-02-18 06:00:00 8.9 21 Sur 32 Sur 0 943.9 0.2 84
2020-02-18 05:00:00 7.4 12 Sudeste 17 Sudeste 0 943.7 -0.4 92
2020-02-18 04:00:00 6.9 8 Sur 10 Sur 0 943.5 -0.7 92
2020-02-18 03:00:00 8.1 4 Sudeste 7 Sudeste 0 943.7 -0.5 90
2020-02-18 02:00:00 8.3 4 Este 11 Norte 0 944.1 -0.2 90
2020-02-18 01:00:00 9.1 4 Este 13 Nordeste 0 944.2 0.1 89
2020-02-18 00:00:00 10.4 11 Nordeste 20 Nordeste 0 944.2 0.3 86
2020-02-17 23:00:00 10.1 10 Este 14 Nordeste 0 944.3 0.8 87
2020-02-17 22:00:00 10.1 10 Este 17 Nordeste 0 944.1 1.2 86
2020-02-17 21:00:00 10.3 9 Este 14 Este 0 943.9 1.5 85
2020-02-17 20:00:00 10.1 7 Este 14 Este 0 943.5 1.2 82
2020-02-17 19:00:00 12.2 8 Nordeste 19 Nordeste 0 942.9 0.7 76
2020-02-17 18:00:00 14 14 Norte 27 Nordeste 0 942.4 0.3 71
2020-02-17 17:00:00 14.8 18 Nordeste 30 Norte 0 942.3 -0.3 66
2020-02-17 16:00:00 14.6 21 Nordeste 33 Norte 0 942.2 -1.3 67
2020-02-17 15:00:00 14 20 Nordeste 32 Nordeste 0 942.1 -1.8 68
2020-02-17 14:00:00 14.2 17 Norte 25 Nordeste 0 942.6 -1 67
2020-02-17 13:00:00 12.5 14 Norte 23 Norte 0 943.5 -0.2 76
2020-02-17 12:00:00 10.1 11 Norte 24 Norte 0 943.9 0.8 88
2020-02-17 11:00:00 8.4 15 Norte 24 Norte 0 943.6 1.3 97
2020-02-17 10:00:00 8 11 Nordeste 16 Nordeste 0 943.7 1.6 98
2020-02-17 09:00:00 4.1 8 Este 12 Este 0 943.1 0.9 95
2020-02-17 08:00:00 1.8 4 Nordeste 6 Nordeste 0 942.3 0 95
2020-02-17 07:00:00 2.3 4 Noroeste 9 Norte 0 942.1 0 93
2020-02-17 06:00:00 3.1 6 Este 9 Norte 0 942.2 -0.2 94
2020-02-17 05:00:00 4 8 Norte 14 Nordeste 0 942.3 -0.3 95
2020-02-17 04:00:00 5.5 11 Nordeste 15 Norte 0 942.1 -0.6 93
2020-02-17 03:00:00 5.1 13 Norte 14 Norte 0 942.4 -0.2 94
2020-02-17 02:00:00 5.6 4 Este 6 Nordeste 0 942.6 0 89
2020-02-17 01:00:00 6.5 2 Noroeste 13 Norte 0 942.7 0.2 88
2020-02-17 00:00:00 7.5 12 Norte 13 Norte 0 942.6 0.5 90
2020-02-16 23:00:00 6.9 3 Este 6 Sudoeste 0 942.6 0.7 83
2020-02-16 22:00:00 7.9 4 Sudoeste 9 Oeste 0 942.5 1 78
2020-02-16 21:00:00 9.4 7 Norte 10 Nordeste 0 942.1 0.8 72
2020-02-16 20:00:00 11.3 6 Nordeste 12 Norte 0 941.9 0.6 70
2020-02-16 19:00:00 13.7 6 Nordeste 17 Norte 0 941.5 0.2 62
2020-02-16 18:00:00 16.8 13 Norte 28 Norte 0 941.3 -0.3 50
2020-02-16 17:00:00 18.1 18 Norte 31 Norte 0 941.3 -0.9 46
2020-02-16 16:00:00 18.2 18 Norte 29 Norte 0 941.3 -1.6 49
2020-02-16 15:00:00 17.3 15 Norte 30 Norte 0 941.6 -1.9 55
2020-02-16 14:00:00 16.6 14 Norte 26 Norte 0 942.2 -1.4 58
2020-02-16 13:00:00 15.4 9 Norte 19 Norte 0 942.9 -0.6 64
2020-02-16 12:00:00 13.9 5 Noroeste 11 Nordeste 0 943.5 0.3 68
2020-02-16 11:00:00 11.3 3 Este 9 Este 0 943.6 0.7 74
2020-02-16 10:00:00 7.8 7 Este 13 Este 0 943.5 1.1 81
2020-02-16 09:00:00 4 8 Este 13 Este 0 943.2 1 90
2020-02-16 08:00:00 1.8 10 Este 14 Este 0 942.9 0.9 95
2020-02-16 07:00:00 1.8 11 Este 17 Este 0 942.4 0.1 94
2020-02-16 06:00:00 2.4 6 Este 19 Este 0 942.2 -0.6 94
2020-02-16 05:00:00 3 12 Este 16 Este 0 942 -1.2 94
2020-02-16 04:00:00 2.9 10 Este 13 Este 0 942.3 -0.9 92
2020-02-16 03:00:00 3.3 10 Este 13 Este 0 942.8 -0.4 92
2020-02-16 02:00:00 4.7 7 Este 10 Este 0 943.2 0.5 89
2020-02-16 01:00:00 5.1 4 Este 8 Este 0 943.2 0.5 88
2020-02-16 00:00:00 5.9 4 Este 9 Este 0 943.2 0.7 85
2020-02-15 23:00:00 7 4 Este 10 Este 0 942.7 0.6 83
2020-02-15 22:00:00 8 3 Este 6 Sudeste 0 942.7 1.1 79
2020-02-15 21:00:00 10.4 6 Nordeste 13 Nordeste 0 942.5 1.5 71
2020-02-15 20:00:00 10.9 6 Este 12 Nordeste 0 942.1 1.6 72
2020-02-15 19:00:00 13.3 10 Nordeste 13 Norte 0 941.6 0.8 62
2020-02-15 18:00:00 16.5 11 Norte 18 Noroeste 0 941 -0.4 53
2020-02-15 17:00:00 17.1 9 Norte 20 Norte 0 940.5 -1.4 51
2020-02-15 16:00:00 17.3 13 Norte 23 Norte 0 940.8 -1.6 48
2020-02-15 15:00:00 16.9 12 Norte 21 Nordeste 0 941.4 -1 50
2020-02-15 14:00:00 16.1 11 Norte 18 Norte 0 941.9 -0.3 53
2020-02-15 13:00:00 14.7 4 Nordeste 9 Sudoeste 0 942.4 0.1 60
2020-02-15 12:00:00 13.1 4 Sur 10 Sur 0 942.4 0.5 67
2020-02-15 11:00:00 10.1 5 Sur 12 Sur 0 942.2 1.2 77
2020-02-15 10:00:00 7.1 7 Este 12 Este 0 942.3 1.9 85
2020-02-15 09:00:00 3.5 7 Este 14 Este 0 941.9 1.7 93
2020-02-15 08:00:00 1.9 9 Este 15 Este 0 941 1 97
2020-02-15 07:00:00 1.7 10 Este 14 Este 0 940.4 -0.1 96
2020-02-15 06:00:00 1.6 11 Este 16 Este 0 940.2 -0.2 96
2020-02-15 05:00:00 2.3 7 Este 10 Este 0 940 -0.3 95
2020-02-15 04:00:00 3.2 7 Este 12 Este 0 940.5 -0.4 95
2020-02-15 03:00:00 3.7 8 Este 16 Este 0 940.4 -0.5 95
2020-02-15 02:00:00 2.8 9 Este 12 Este 0 940.3 -0.7 93
2020-02-15 01:00:00 3.7 5 Este 10 Este 0 940.9 0.2 91
2020-02-15 00:00:00 4.3 0 Calma 10 Este 0 940.9 0.5 90
2020-02-14 23:00:00 5.5 8 Este 10 Este 0 941 0.8 88
2020-02-14 22:00:00 6.8 4 Este 8 Norte 0 940.7 0.8 83
2020-02-14 21:00:00 8.2 5 Norte 8 Norte 0 940.4 0.7 82
2020-02-14 20:00:00 9.8 5 Norte 6 Norte 0 940.2 0.8 75
2020-02-14 19:00:00 12.1 6 Norte 11 Norte 0 939.9 0.3 67
2020-02-14 18:00:00 14.7 11 Norte 17 Norte 0 939.7 -0.3 56
2020-02-14 17:00:00 15.7 7 Norte 13 Nordeste 0 939.4 -1.3 53
2020-02-14 16:00:00 15.5 6 Norte 12 Norte 0 939.6 -1.8 52
2020-02-14 15:00:00 14.5 4 Noroeste 10 Norte 0 940 -2.1 58
2020-02-14 14:00:00 12.7 4 Norte 13 Noroeste 0 940.7 -1.5 73
2020-02-14 13:00:00 9.9 9 Noroeste 15 Norte 0 941.4 -0.5 87
2020-02-14 12:00:00 7.1 6 Noroeste 9 Noroeste 0 942.1 0.6 96
2020-02-14 11:00:00 5.5 3 Este 9 Este 0 942.2 1.1 98
2020-02-14 10:00:00 4.4 5 Este 9 Este 0 941.9 1.2 98
2020-02-14 09:00:00 4 5 Norte 13 Norte 0 941.5 0.7 98
2020-02-14 08:00:00 4.9 7 Nordeste 9 Norte 0 941.1 0.5 98
2020-02-14 07:00:00 4.2 4 Nordeste 13 Este 0 940.7 0 98
2020-02-14 06:00:00 2.5 8 Este 12 Este 0 940.8 -0.3 97
2020-02-14 05:00:00 3.2 4 Nordeste 10 Este 0 940.6 -0.5 97
2020-02-14 04:00:00 3.2 6 Este 9 Este 0 940.7 -0.5 95
2020-02-14 03:00:00 4.8 2 Norte 13 Este 0 941.1 0 96
2020-02-14 02:00:00 5.5 12 Este 15 Este 0 941.1 -0.1 96
2020-02-14 01:00:00 5.5 5 Sur 10 Sudoeste 0 941.2 0.3 94
2020-02-14 00:00:00 6 4 Sur 14 Este 0 941.1 0.7 92
2020-02-13 23:00:00 7.3 8 Este 17 Este 0 941.2 0.8 94
2020-02-13 22:00:00 7.9 7 Este 12 Nordeste 0 940.9 0.7 89
2020-02-13 21:00:00 8.8 6 Nordeste 13 Nordeste 0 940.4 1 87
2020-02-13 20:00:00 11.4 11 Nordeste 18 Nordeste 0 940.4 1.4 77
2020-02-13 19:00:00 12.2 12 Nordeste 24 Nordeste 0 940.2 1.5 68
2020-02-13 18:00:00 12.6 16 Nordeste 30 Nordeste 0 939.4 0.8 65
2020-02-13 17:00:00 13.9 22 Nordeste 32 Nordeste 0 939 0.1 62
2020-02-13 16:00:00 14.1 21 Nordeste 32 Nordeste 0 938.7 -1 61
2020-02-13 15:00:00 14.3 22 Nordeste 33 Nordeste 0 938.6 -1.8 60
2020-02-13 14:00:00 14 17 Norte 28 Norte 0 938.9 -1 62
2020-02-13 13:00:00 13.5 18 Norte 26 Nordeste 0 939.7 0.1 65
2020-02-13 12:00:00 12.2 15 Nordeste 29 Norte 0.2 940.4 1.2 75
2020-02-13 11:00:00 11 16 Nordeste 22 Nordeste 0 939.9 1.6 84
2020-02-13 10:00:00 9.3 12 Norte 17 Norte 0 939.6 1.9 98
2020-02-13 09:00:00 8.7 8 Norte 12 Norte 0 939.2 1.3 99
2020-02-13 08:00:00 8.8 8 Norte 10 Norte 0 938.3 0.8 98
2020-02-13 07:00:00 9.1 3 Norte 11 Norte 0 937.7 -0.1 98
2020-02-13 06:00:00 9 4 Norte 8 Norte 0 937.9 -0.2 98
2020-02-13 05:00:00 8.9 3 Norte 8 Noroeste 0 937.5 -0.9 97
2020-02-13 04:00:00 9 2 Oeste 4 Oeste 0 937.8 -0.8 97
2020-02-13 03:00:00 9.2 2 Sudeste 6 Este 0 938.1 -0.4 96
2020-02-13 02:00:00 9.1 4 Este 7 Sudeste 0 938.4 0.1 97
2020-02-13 01:00:00 8.9 6 Este 10 Sudeste 0 938.6 0.4 97
2020-02-13 00:00:00 8.3 7 Este 13 Este 0 938.5 0.3 97
2020-02-12 23:00:00 8.3 8 Oeste 11 Oeste 0 938.3 -0.1 97
2020-02-12 22:00:00 8.8 8 Sur 13 Sudoeste 0 938.2 0.2 96
2020-02-12 21:00:00 9.8 6 Sudoeste 9 Sudoeste 0 938.2 0.6 93
2020-02-12 20:00:00 11.3 4 Sudoeste 7 Sur 0 938.4 0.7 89
2020-02-12 19:00:00 11.9 3 Sudoeste 8 Sur 0 938 0.1 86
2020-02-12 18:00:00 12.3 3 Sur 8 Sudeste 0 937.6 -0.7 83
2020-02-12 17:00:00 12.5 3 Sudeste 8 Este 0 937.7 -1.2 83
2020-02-12 16:00:00 12.8 2 Noroeste 8 Oeste 0 937.9 -1.7 81
2020-02-12 15:00:00 12.2 5 Sudoeste 10 Sudoeste 0 938.3 -1.6 85
2020-02-12 14:00:00 11.1 6 Sudoeste 16 Sudoeste 0 938.9 -0.9 92
2020-02-12 13:00:00 10 9 Sudoeste 17 Oeste 0 939.6 -0.2 96
2020-02-12 12:00:00 10.4 8 Oeste 13 Sudoeste 0 939.9 0 94
2020-02-12 11:00:00 9.6 3 Sudeste 11 Sudeste 0 939.8 0.2 94
2020-02-12 10:00:00 8.9 7 Sudeste 10 Nordeste 0 939.8 0.4 98
2020-02-12 09:00:00 8.5 2 Este 10 Nordeste 0 939.9 0.5 99
2020-02-12 08:00:00 8.3 9 Nordeste 14 Nordeste 0 939.6 0.4 99
2020-02-12 07:00:00 8.1 2 Norte 8 Sudeste 0 939.4 0.1 99
2020-02-12 06:00:00 7.9 0 Calma 7 Nordeste 0 939.4 -0.6 98
2020-02-12 05:00:00 7.9 6 Nordeste 10 Este 0 939.2 -0.7 98
2020-02-12 04:00:00 8 6 Este 15 Nordeste 0 939.3 -0.8 98
2020-02-12 03:00:00 8.3 13 Nordeste 19 Norte 0 940 0 98
2020-02-12 02:00:00 8.6 13 Norte 18 Norte 0 939.9 -0.8 98
2020-02-12 01:00:00 8.8 12 Norte 21 Norte 0 940.1 -0.3 98
2020-02-12 00:00:00 8.7 16 Norte 21 Norte 0 940 -0.4 97
2020-02-11 23:00:00 8.3 9 Norte 13 Noroeste 0 940.7 0.4 98
2020-02-11 22:00:00 8.1 6 Norte 22 Norte 0 940.4 0.3 97
2020-02-11 21:00:00 8.4 8 Norte 15 Norte 0 940.4 0.5 96
2020-02-11 20:00:00 8.8 10 Norte 15 Norte 0 940.3 0.4 94
2020-02-11 19:00:00 10.8 13 Norte 23 Norte 0 940.1 0 90
2020-02-11 18:00:00 13.4 19 Norte 29 Norte 0 939.9 -0.7 80
2020-02-11 17:00:00 14.6 21 Norte 30 Norte 0 939.9 -1.6 77
2020-02-11 16:00:00 14.6 20 Norte 28 Norte 0 940.1 -2.4 78
2020-02-11 15:00:00 13.6 18 Norte 27 Norte 0 940.6 -2.4 84
2020-02-11 14:00:00 12.3 15 Norte 22 Noroeste 0 941.5 -1.8 88
2020-02-11 13:00:00 10.6 14 Norte 20 Norte 0 942.5 -0.7 98
2020-02-11 12:00:00 9.8 9 Norte 17 Norte 0 943 0 99
2020-02-11 11:00:00 9.4 8 Norte 17 Norte 0 943.3 0.4 99
2020-02-11 10:00:00 8.7 12 Norte 17 Norte 0 943.2 0.6 99
2020-02-11 09:00:00 8.3 8 Norte 17 Norte 0 943 0.3 99
2020-02-11 08:00:00 8.6 8 Norte 15 Norte 0 942.9 -0.1 99
2020-02-11 07:00:00 8 9 Norte 14 Nordeste 0 942.6 -0.9 99
2020-02-11 06:00:00 7.1 8 Norte 12 Norte 0 942.7 -1.6 98
2020-02-11 05:00:00 6.4 9 Norte 15 Norte 0 943 -1.7 98
2020-02-11 04:00:00 5.1 9 Norte 15 Norte 0 943.5 -1.7 98
2020-02-11 03:00:00 4.9 12 Norte 13 Noroeste 0 944.3 -1 97
2020-02-11 02:00:00 5.6 10 Norte 17 Norte 0 944.7 -0.8 95
2020-02-11 01:00:00 6.3 14 Norte 17 Norte 0 945.2 -0.2 96
2020-02-11 00:00:00 6.9 6 Noroeste 9 Este 0 945.3 -0.2 92
2020-02-10 23:00:00 7.6 6 Este 9 Este 0 945.5 0.3 90
2020-02-10 22:00:00 10.1 10 Nordeste 15 Nordeste 0 945.4 0.8 84
2020-02-10 21:00:00 10.4 10 Nordeste 15 Nordeste 0 945.5 1 82
2020-02-10 20:00:00 11.3 10 Nordeste 13 Nordeste 0 945.2 0.5 79
2020-02-10 19:00:00 12.1 10 Norte 19 Norte 0 944.6 -0.4 77
2020-02-10 18:00:00 15.3 15 Norte 32 Norte 0 944.5 -1 65
2020-02-10 17:00:00 16 20 Norte 29 Norte 0 944.7 -1.8 62
2020-02-10 16:00:00 16.2 19 Norte 32 Norte 0 945 -2.6 62
2020-02-10 15:00:00 15.5 20 Norte 31 Norte 0 945.5 -2.7 64
2020-02-10 14:00:00 14.2 18 Norte 33 Nordeste 0 946.5 -1.7 69
2020-02-10 13:00:00 12.5 18 Norte 26 Norte 0 947.6 -0.4 76
2020-02-10 12:00:00 9.4 10 Norte 17 Norte 0 948.2 0.5 94
2020-02-10 11:00:00 7.4 7 Norte 10 Nordeste 0 948.2 0.9 98
2020-02-10 10:00:00 5.5 2 Sur 9 Este 0 948 1.3 98
2020-02-10 09:00:00 3.8 6 Este 11 Este 0 947.7 1.1 98
2020-02-10 08:00:00 3.3 3 Sudeste 6 Noroeste 0 947.3 0.7 98
2020-02-10 07:00:00 3.1 3 Oeste 9 Norte 0 946.7 0.3 98
2020-02-10 06:00:00 3.5 5 Nordeste 13 Norte 0 946.6 -0.2 98
2020-02-10 05:00:00 3.8 13 Norte 15 Norte 0 946.6 -0.3 97
2020-02-10 04:00:00 4.1 6 Noroeste 8 Norte 0 946.4 -0.7 96
2020-02-10 03:00:00 4.2 2 Oeste 8 Norte 0 946.8 -0.5 94
2020-02-10 02:00:00 4.9 6 Norte 8 Norte 0 946.9 -0.4 95
2020-02-10 01:00:00 5.4 3 Oeste 4 Sudoeste 0 947.1 0 92
2020-02-10 00:00:00 6.2 3 Noroeste 11 Nordeste 0 947.3 0.6 90
2020-02-09 23:00:00 7.4 12 Nordeste 14 Nordeste 0 947.3 1.2 87
2020-02-09 22:00:00 7.5 12 Nordeste 13 Nordeste 0 947.1 1.4 86
2020-02-09 21:00:00 8.5 9 Norte 11 Nordeste 0 946.7 1.7 82
2020-02-09 20:00:00 9.5 6 Norte 8 Norte 0 946.1 1.1 77
2020-02-09 19:00:00 9.9 7 Norte 12 Norte 0 945.7 1.1 77
2020-02-09 18:00:00 11.9 11 Norte 17 Nordeste 0 945 0 67
2020-02-09 17:00:00 12.7 9 Norte 17 Norte 0 945 -0.6 63
2020-02-09 16:00:00 12.4 9 Norte 18 Norte 0 944.6 -0.9 67
2020-02-09 15:00:00 11.6 10 Norte 21 Nordeste 0 945 -1.3 73
2020-02-09 14:00:00 10.2 13 Norte 21 Norte 0 945.6 -0.7 77
2020-02-09 13:00:00 9.2 10 Norte 18 Nordeste 0 945.5 -0.2 84
2020-02-09 12:00:00 8.3 13 Norte 19 Norte 0 946.3 1.3 90
2020-02-09 11:00:00 7.1 9 Norte 15 Norte 0 946.3 2.3 98
2020-02-09 10:00:00 6.6 10 Norte 14 Norte 0 945.7 1.9 98
2020-02-09 09:00:00 5.4 8 Norte 13 Norte 0 945 1.5 98
2020-02-09 08:00:00 2.8 3 Norte 10 Este 0 944 1 97
2020-02-09 07:00:00 4.5 6 Este 15 Sudeste 0 943.8 1 98
2020-02-09 06:00:00 6.6 8 Norte 12 Norte 0 943.5 1.1 98
2020-02-09 05:00:00 6.9 8 Norte 12 Norte 0 943 0.4 98
2020-02-09 04:00:00 6.8 5 Noroeste 7 Noroeste 0 942.8 -0.2 98
2020-02-09 03:00:00 6.5 5 Norte 12 Norte 0 942.4 -0.5 97
2020-02-09 02:00:00 6.7 9 Norte 14 Norte 0 942.6 0 96
2020-02-09 01:00:00 8.3 12 Nordeste 16 Nordeste 0 943 0.6 91
2020-02-09 00:00:00 7.2 0 Calma 6 Sudeste 0 942.9 0.9 95
2020-02-08 23:00:00 7.1 3 Este 9 Norte 0 942.6 1.1 95
2020-02-08 22:00:00 7.4 9 Nordeste 12 Norte 0 942.4 1.8 94
2020-02-08 21:00:00 8.9 7 Nordeste 12 Nordeste 0 942 2 92
2020-02-08 20:00:00 9.4 9 Nordeste 15 Nordeste 0 941.5 2.5 93
2020-02-08 19:00:00 9.4 15 Norte 37 Nordeste 0.8 940.6 1.7 95
2020-02-08 18:00:00 10.8 25 Norte 35 Nordeste 0 940 0.8 75
2020-02-08 17:00:00 13.3 17 Norte 26 Noroeste 0 939 -0.8 58
2020-02-08 16:00:00 13.9 16 Norte 26 Norte 0 938.9 -1.9 53
2020-02-08 15:00:00 13.6 16 Norte 30 Norte 0 939.2 -1.8 56
2020-02-08 14:00:00 13 13 Norte 27 Norte 0 939.8 -1.2 63
2020-02-08 13:00:00 12.2 17 Norte 27 Norte 0 940.8 0.3 70
2020-02-08 12:00:00 9.9 11 Norte 15 Norte 0 941 0.8 84
2020-02-08 11:00:00 8.2 12 Norte 20 Norte 0 941 1.4 91
2020-02-08 10:00:00 6.5 5 Norte 8 Norte 0 940.5 1.1 97
2020-02-08 09:00:00 4.9 2 Sur 6 Sur 0 940.2 1.1 98
2020-02-08 08:00:00 4.6 2 Sudoeste 6 Noroeste 0 939.6 0.4 98
2020-02-08 07:00:00 4 2 Este 11 Norte 0 939.4 0.3 98
2020-02-08 06:00:00 4.4 9 Norte 11 Norte 0 939.1 -0.2 97
2020-02-08 05:00:00 4 3 Nordeste 8 Este 0 939.2 0.2 95
2020-02-08 04:00:00 4.8 4 Este 9 Este 0 939.1 -0.2 96
2020-02-08 03:00:00 4.3 6 Este 12 Este 0 939.3 -0.2 95
2020-02-08 02:00:00 5 2 Este 8 Este 0 939 -0.5 92
2020-02-08 01:00:00 6.7 2 Sur 7 Noroeste 0 939.3 0 91
2020-02-08 00:00:00 7.3 4 Oeste 7 Oeste 0 939.5 0.6 89
2020-02-07 23:00:00 7.9 8 Nordeste 12 Nordeste 0 939.5 0.8 88
2020-02-07 22:00:00 7.5 7 Nordeste 14 Nordeste 0 939.3 0.9 89
2020-02-07 21:00:00 7.8 9 Nordeste 10 Nordeste 0 938.9 0.8 86
2020-02-07 20:00:00 8.3 9 Norte 12 Norte 0 938.7 0.6 84
2020-02-07 19:00:00 9.1 9 Norte 13 Norte 0 938.4 0.4 80
2020-02-07 18:00:00 11.9 8 Norte 23 Norte 0 938.1 0.1 71
2020-02-07 17:00:00 12.9 15 Norte 24 Norte 0 938.1 -0.5 67
2020-02-07 16:00:00 12.5 14 Norte 26 Norte 0 938 -1.4 68
2020-02-07 15:00:00 11 8 Norte 14 Nordeste 0 938 -1.6 74
2020-02-07 14:00:00 9.6 3 Oeste 15 Sudoeste 0 938.6 -0.9 75
2020-02-07 13:00:00 7.7 6 Sudoeste 18 Sudoeste 0 939.4 0.1 82
2020-02-07 12:00:00 7 9 Sudoeste 19 Sudoeste 0 939.6 0.6 85
2020-02-07 11:00:00 6.5 10 Sudoeste 19 Sudoeste 0 939.5 0.9 88
2020-02-07 10:00:00 5.9 9 Sur 21 Sudoeste 0 939.3 1 90
2020-02-07 09:00:00 5.3 11 Sur 21 Sur 0 939 0.8 93
2020-02-07 08:00:00 5.3 14 Sur 23 Sur 0 938.6 0.7 93
2020-02-07 07:00:00 5.3 12 Sur 21 Sur 0 938.3 0 94
2020-02-07 06:00:00 5.4 12 Sur 26 Sudoeste 0 938.2 -0.2 93
2020-02-07 05:00:00 5.7 13 Sur 28 Sur 0 937.9 -1 92
2020-02-07 04:00:00 5.9 15 Sur 28 Sur 0 938.3 -0.7 91
2020-02-07 03:00:00 5.4 15 Sur 26 Sur 0 938.4 -0.6 94
2020-02-07 02:00:00 5.3 14 Sur 24 Sur 0 938.9 0.1 94
2020-02-07 01:00:00 5.9 14 Sur 26 Sur 0 939 0.2 91
2020-02-07 00:00:00 6.1 14 Sur 26 Sur 0 939 0.4 89
2020-02-06 23:00:00 7.1 13 Sur 29 Sur 0 938.8 0.5 79
2020-02-06 22:00:00 7.8 14 Sur 26 Sur 0 938.8 0.7 77
2020-02-06 21:00:00 8.3 13 Sur 23 Sur 0 938.6 0.9 75
2020-02-06 20:00:00 9.2 13 Sur 23 Sur 0 938.3 0.7 71
2020-02-06 19:00:00 9.9 12 Sur 24 Sudoeste 0 938.1 0.4 65
2020-02-06 18:00:00 11 12 Sur 26 Sur 0 937.7 -0.5 60
2020-02-06 17:00:00 11.9 13 Sur 28 Sur 0 937.6 -1.4 58
2020-02-06 16:00:00 12.5 17 Sur 31 Sur 0 937.7 -2.3 55
2020-02-06 15:00:00 12.2 15 Sudoeste 36 Sudoeste 0 938.2 -2.6 56
2020-02-06 14:00:00 11.2 21 Sudoeste 39 Sur 0 939 -1.7 58
2020-02-06 13:00:00 9.9 22 Sudoeste 41 Sur 0 940 -0.4 66
2020-02-06 12:00:00 8.5 22 Sur 38 Sudoeste 0 940.8 0.7 72
2020-02-06 11:00:00 7.9 20 Sur 38 Sur 0 940.7 0.7 75
2020-02-06 10:00:00 7 19 Sur 35 Sur 0 940.4 0.6 80
2020-02-06 09:00:00 5.9 23 Sur 34 Sur 0 940.1 0.3 87
2020-02-06 08:00:00 6.3 16 Sur 32 Sur 0 940 0.2 86
2020-02-06 07:00:00 6.2 16 Sur 32 Sur 0 939.8 0 88
2020-02-06 06:00:00 6.1 15 Sur 31 Sudoeste 0 939.8 -0.2 91
2020-02-06 05:00:00 6 19 Sur 33 Sudoeste 0 939.8 -0.6 94
2020-02-06 04:00:00 6.4 17 Sur 35 Sur 0 939.8 -1.1 94
2020-02-06 03:00:00 6.6 19 Sur 34 Sur 0 940 -0.8 93
2020-02-06 02:00:00 6.8 14 Sur 29 Sudoeste 0 940.4 -0.4 94
2020-02-06 01:00:00 6.6 14 Sur 28 Sudoeste 0 940.9 0.2 94
2020-02-06 00:00:00 6.3 12 Sur 25 Sudoeste 0 940.8 0.1 93
2020-02-05 23:00:00 6.7 12 Sur 29 Sur 0 940.8 0.1 92
2020-02-05 22:00:00 7.2 15 Sudoeste 32 Sudoeste 0 940.7 0.3 91
2020-02-05 21:00:00 7.8 13 Sudoeste 24 Sudoeste 0 940.7 0.4 87
2020-02-05 20:00:00 8.6 11 Sudoeste 24 Sudoeste 0 940.7 0.5 81
2020-02-05 19:00:00 9.9 14 Sudoeste 28 Sudoeste 0 940.4 0.1 75
2020-02-05 18:00:00 11.6 13 Sudoeste 31 Sudoeste 0 940.3 -0.4 65
2020-02-05 17:00:00 12.8 16 Sur 31 Sur 0 940.2 -1.4 59
2020-02-05 16:00:00 13.2 18 Sur 32 Sur 0 940.3 -2.2 59
2020-02-05 15:00:00 12.9 18 Sudoeste 32 Sudoeste 0 940.7 -2.3 60
2020-02-05 14:00:00 12.1 19 Sudoeste 34 Sudoeste 0 941.6 -1.8 63
2020-02-05 13:00:00 11.5 18 Sudoeste 34 Sudoeste 0 942.5 -1 64
2020-02-05 12:00:00 10.5 19 Sur 32 Sur 0 943 -0.3 64
2020-02-05 11:00:00 8.7 17 Sur 31 Sur 0 943.4 0.4 70
2020-02-05 10:00:00 6.9 17 Sur 28 Sur 0 943.5 0.9 77
2020-02-05 09:00:00 4.5 13 Sur 21 Sur 0 943.3 0.9 84
2020-02-05 08:00:00 3.6 14 Sur 24 Sur 0 943 0.4 87
2020-02-05 07:00:00 2.1 10 Sudeste 17 Sudeste 0 942.6 0 80
2020-02-05 06:00:00 2.8 10 Sudeste 15 Sudeste 0 942.4 -0.6 81
2020-02-05 05:00:00 2 5 Sur 17 Este 0 942.6 -0.5 80
2020-02-05 04:00:00 2.8 9 Este 16 Este 0 942.6 -0.6 77
2020-02-05 03:00:00 3.7 4 Sudeste 11 Este 0 943 -0.3 81
2020-02-05 02:00:00 5.9 6 Este 15 Nordeste 0 943.1 -0.2 75
2020-02-05 01:00:00 5.4 6 Este 12 Este 0 943.2 0 85
2020-02-05 00:00:00 8 3 Nordeste 16 Nordeste 0 943.3 0.7 81
2020-02-04 23:00:00 8.7 8 Este 15 Nordeste 0 943.3 0.8 80
2020-02-04 22:00:00 9.3 3 Sur 14 Nordeste 0 943.2 1.2 78
2020-02-04 21:00:00 10.5 9 Este 15 Nordeste 0 942.6 1 76
2020-02-04 20:00:00 10.9 14 Nordeste 19 Nordeste 0 942.5 1.1 69
2020-02-04 19:00:00 13.1 14 Nordeste 19 Nordeste 0 942 0.5 58
2020-02-04 18:00:00 16.6 15 Nordeste 23 Norte 0 941.6 -0.4 51
2020-02-04 12:00:00 7.8 17 Norte 24 Norte 0 944.8 -0.2 98
2020-02-04 11:00:00 6.1 8 Noroeste 13 Norte 0 945 0.6 98
2020-02-04 10:00:00 4.6 8 Noroeste 12 Noroeste 0 945.1 0.6 98
2020-02-04 09:00:00 3.1 3 Sudeste 14 Noroeste 0 945 0.5 98
2020-02-04 08:00:00 1.7 5 Noroeste 11 Norte 0 944.4 0.1 98
2020-02-04 07:00:00 2.1 5 Norte 12 Norte 0 944.5 -0.2 98
2020-02-04 06:00:00 3.5 9 Norte 13 Norte 0 944.5 -0.2 98
2020-02-04 05:00:00 3.7 4 Este 6 Sudeste 0 944.3 -0.6 97
2020-02-04 04:00:00 4.4 5 Este 14 Este 0 944.7 -0.8 97
2020-02-04 03:00:00 5.3 7 Este 10 Este 0 944.7 -0.9 98
2020-02-04 02:00:00 6.5 3 Nordeste 14 Norte 0 944.9 -0.8 98
2020-02-04 01:00:00 7 8 Noroeste 10 Noroeste 0 945.5 0 98
2020-02-04 00:00:00 7.1 8 Norte 15 Norte 0 945.6 0.3 95
2020-02-03 23:00:00 8.6 13 Norte 19 Norte 0 945.7 0.8 95
2020-02-03 22:00:00 9.3 8 Nordeste 17 Norte 0 945.5 1 92
2020-02-03 21:00:00 9.6 12 Norte 14 Norte 0 945.3 1.4 89
2020-02-03 20:00:00 10.9 4 Noroeste 10 Norte 0 944.9 1.1 82
2020-02-03 19:00:00 13.1 11 Norte 16 Norte 0 944.5 0.8 74
2020-02-03 18:00:00 16.5 12 Norte 15 Norte 0 943.9 -0.1 64
2020-02-03 17:00:00 18.7 11 Norte 15 Norte 0 943.8 -1.2 48
2020-02-03 16:00:00 18.3 2 Sur 6 Noroeste 0 943.7 -2 50
2020-02-03 15:00:00 17 2 Nordeste 8 Oeste 0 944 -2.4 56
2020-02-03 14:00:00 16.3 3 Noroeste 10 Noroeste 0 945 -1.7 61
2020-02-03 13:00:00 14.8 3 Oeste 8 Sur 0 945.7 -1.2 65
2020-02-03 12:00:00 12.1 4 Este 8 Nordeste 0 946.4 -0.2 78
2020-02-03 11:00:00 8.7 4 Este 8 Este 0 946.7 0.7 90
2020-02-03 10:00:00 3.9 2 Este 4 Nordeste 0 946.9 1 98
2020-02-03 09:00:00 1.8 2 Norte 6 Norte 0 946.6 1 98
2020-02-03 08:00:00 1.6 3 Nordeste 4 Sudeste 0 946 0.5 98
2020-02-03 07:00:00 2.5 0 Calma 11 Noroeste 0 945.9 0.4 98
2020-02-03 06:00:00 3.1 8 Noroeste 10 Noroeste 0 945.6 -0.4 98
2020-02-03 05:00:00 4.1 3 Sudoeste 6 Sur 0 945.5 -0.8 98
2020-02-03 04:00:00 4.2 4 Sudeste 8 Norte 0 945.5 -1.2 97
2020-02-03 03:00:00 5 6 Nordeste 12 Este 0 946 -0.7 98
2020-02-03 02:00:00 5 5 Noroeste 10 Noroeste 0 946.3 -0.6 98
2020-02-03 01:00:00 5.6 5 Noroeste 6 Noroeste 0 946.7 -0.1 97
2020-02-03 00:00:00 6.4 3 Sudeste 6 Sudeste 0 946.7 0.1 96
2020-02-02 23:00:00 6.7 5 Sudeste 7 Sudeste 0 946.9 0.9 95
2020-02-02 22:00:00 7.8 6 Nordeste 10 Este 0 946.8 1.2 95
2020-02-02 21:00:00 8.9 3 Nordeste 11 Este 0 946.6 1.5 93
2020-02-02 20:00:00 10 7 Este 13 Nordeste 0 946 0.8 90
2020-02-02 19:00:00 11.5 10 Nordeste 12 Nordeste 0 945.6 0.6 85
2020-02-02 18:00:00 14.3 8 Norte 19 Norte 0 945.1 0.2 75
2020-02-02 17:00:00 15.2 13 Norte 19 Nordeste 0 945.2 -0.3 72
2020-02-02 16:00:00 14.8 8 Norte 18 Nordeste 0 945 -1.1 75
2020-02-02 15:00:00 13.2 12 Norte 18 Norte 0 944.9 -1.9 79
2020-02-02 14:00:00 11.9 10 Nordeste 21 Nordeste 0 945.5 -1.1 85
2020-02-02 13:00:00 11.3 4 Norte 17 Norte 0 946.1 -0.1 87
2020-02-02 12:00:00 10.9 10 Nordeste 18 Norte 0 946.8 1 90
2020-02-02 11:00:00 10.7 10 Nordeste 19 Nordeste 0 946.6 1.8 91
2020-02-02 10:00:00 10.4 10 Nordeste 19 Nordeste 0 946.2 1.9 93
2020-02-02 09:00:00 10.1 11 Nordeste 18 Nordeste 0 945.8 1.9 94
2020-02-02 08:00:00 10.2 9 Nordeste 22 Nordeste 0 944.8 0.8 94
2020-02-02 07:00:00 10.2 11 Nordeste 24 Nordeste 0 944.3 -0.1 94
2020-02-02 06:00:00 10 10 Nordeste 14 Este 0 943.9 -0.9 98
2020-02-02 05:00:00 10 6 Nordeste 8 Nordeste 0 944 -0.4 97
2020-02-02 04:00:00 10.1 6 Noroeste 9 Noroeste 0 944.4 -0.3 98
2020-02-02 03:00:00 10 3 Noroeste 7 Sur 0 944.8 0.4 98
2020-02-02 02:00:00 9.9 2 Oeste 8 Norte 0 944.4 0.4 98
2020-02-02 01:00:00 10 5 Norte 9 Norte 0 944.7 1.1 98
2020-02-02 00:00:00 9.4 4 Oeste 10 Noroeste 0 944.4 1.1 98
2020-02-01 23:00:00 8.8 7 Noroeste 16 Norte 0 944 0.9 97
2020-02-01 22:00:00 9.4 14 Norte 16 Norte 0 943.6 1.4 97
2020-02-01 21:00:00 10.5 11 Norte 15 Norte 0 943.3 1.3 94
2020-02-01 20:00:00 11 10 Norte 18 Norte 0 943.1 1.5 92
2020-02-01 19:00:00 12 14 Norte 15 Norte 0 942.2 0.6 87
2020-02-01 18:00:00 14.7 10 Norte 28 Norte 0 942 0.5 75
2020-02-01 17:00:00 15.6 15 Norte 26 Nordeste 0 941.6 -0.6 74
2020-02-01 16:00:00 15.1 20 Norte 32 Norte 0 941.6 -0.5 72
2020-02-01 15:00:00 15.6 24 Norte 40 Nordeste 0 941.5 -0.5 75
2020-02-01 14:00:00 14.2 22 Norte 41 Norte 0 942.2 0.6 81
2020-02-01 13:00:00 13.6 29 Norte 39 Norte 0 942.1 1.2 87
2020-02-01 12:00:00 12.6 20 Norte 25 Norte 0 942 1.8 95
2020-02-01 11:00:00 11.7 17 Norte 28 Norte 0 941.6 2 98
2020-02-01 10:00:00 11.3 19 Norte 27 Norte 0 940.9 1.8 98
2020-02-01 09:00:00 10.9 18 Norte 31 Norte 0 940.2 1.4 98
2020-02-01 08:00:00 10.8 24 Norte 33 Norte 0.2 939.6 0.8 98
2020-02-01 07:00:00 10.6 20 Norte 33 Norte 0 939.1 0.2 98
2020-02-01 06:00:00 10.8 22 Norte 33 Norte 0 938.8 -0.6 98
2020-02-01 05:00:00 10.8 26 Norte 37 Norte 0 938.8 -0.9 98
2020-02-01 04:00:00 10.5 18 Norte 25 Noroeste 0 938.9 -1.2 98
2020-02-01 03:00:00 10.1 13 Norte 20 Norte 0 939.4 -0.7 98
2020-02-01 02:00:00 9.4 9 Norte 14 Norte 0 939.7 -0.5 97
2020-02-01 01:00:00 9.3 6 Norte 13 Nordeste 0 940.1 0 97
2020-02-01 00:00:00 8.8 7 Norte 12 Norte 0 940.1 0.2 97
2020-01-31 23:00:00 8.6 8 Norte 10 Norte 0 940.2 0.7 96
2020-01-31 22:00:00 9.2 8 Norte 12 Norte 0 940.1 0.8 95
2020-01-31 21:00:00 10.4 10 Norte 21 Norte 0 939.9 0.9 91
2020-01-31 20:00:00 11.3 14 Norte 21 Norte 0 939.5 0.4 87
2020-01-31 19:00:00 11.8 11 Norte 26 Norte 0 939.3 0.2 87
2020-01-31 18:00:00 12.3 16 Norte 26 Norte 0 939 -0.3 84
2020-01-31 17:00:00 12.6 10 Norte 21 Norte 0 939.1 -0.7 83
2020-01-31 16:00:00 12.3 14 Norte 30 Norte 0 939.1 -1.4 84
2020-01-31 15:00:00 12.6 18 Norte 30 Norte 0 939.3 -1.9 82
2020-01-31 14:00:00 12.2 21 Norte 33 Norte 0 939.8 -1.4 80
2020-01-31 13:00:00 12.1 19 Norte 31 Norte 0 940.5 -0.4 82
2020-01-31 12:00:00 10.9 18 Norte 31 Norte 0 941.2 0.4 87
2020-01-31 11:00:00 10.2 23 Norte 35 Norte 0 941.2 0.9 89
2020-01-31 10:00:00 10 23 Norte 31 Norte 0 940.9 0.9 90
2020-01-31 09:00:00 8.7 14 Norte 22 Noroeste 0 940.8 1.1 94
2020-01-31 08:00:00 8 10 Norte 17 Norte 0 940.3 0.4 96
2020-01-31 07:00:00 8 12 Norte 18 Norte 0 940 -0.2 95
2020-01-31 06:00:00 7.9 15 Norte 21 Norte 0 939.7 -0.8 95
2020-01-31 05:00:00 7.7 14 Norte 18 Norte 0 939.9 -0.5 96
2020-01-31 04:00:00 7.5 8 Norte 15 Norte 0 940.2 -0.6 96
2020-01-31 03:00:00 7.3 6 Norte 11 Norte 0 940.5 -0.4 97
2020-01-31 02:00:00 7.2 8 Norte 14 Norte 0 940.4 -0.3 97
2020-01-31 01:00:00 6.8 10 Norte 17 Norte 0 940.8 0.4 97
2020-01-31 00:00:00 7.1 11 Norte 15 Norte 0 940.9 0.8 96
2020-01-30 23:00:00 7.2 14 Norte 21 Nordeste 0 940.7 0.7 95
2020-01-30 22:00:00 7 11 Norte 14 Norte 0 940.4 0.7 94
2020-01-30 21:00:00 7.4 10 Norte 19 Norte 0 940.1 1 92
2020-01-30 20:00:00 8.6 15 Norte 22 Norte 0 940 1.3 86
2020-01-30 19:00:00 9.7 13 Norte 30 Norte 0 939.7 0.9 80
2020-01-30 18:00:00 11.3 23 Norte 40 Norte 0 939.1 0.1 74
2020-01-30 17:00:00 12.1 29 Norte 39 Norte 0 938.7 -0.7 72
2020-01-30 16:00:00 12.5 23 Norte 38 Norte 0 938.8 -1.5 68
2020-01-30 15:00:00 12.4 24 Norte 36 Norte 0 939 -2 68
2020-01-30 14:00:00 12.2 23 Norte 36 Norte 0 939.4 -1.6 72
2020-01-30 13:00:00 11.6 23 Norte 30 Norte 0 940.3 -0.4 78
2020-01-30 12:00:00 9.2 20 Norte 27 Norte 0 941 0.8 98
2020-01-30 11:00:00 8 12 Norte 18 Norte 0 941 1.3 99
2020-01-30 10:00:00 6.7 7 Norte 12 Nordeste 0 940.7 1.3 99
2020-01-30 09:00:00 5.9 6 Nordeste 12 Norte 0 940.2 0.9 99
2020-01-30 08:00:00 6 8 Norte 16 Norte 0 939.7 0.3 99
2020-01-30 07:00:00 6.2 12 Norte 14 Norte 0 939.4 -0.5 99
2020-01-30 06:00:00 6.1 7 Nordeste 12 Norte 0 939.3 -0.9 98
2020-01-30 05:00:00 5.9 9 Norte 12 Norte 0 939.4 -0.8 98
2020-01-30 04:00:00 6.8 8 Norte 13 Norte 0 939.9 -0.6 98
2020-01-30 03:00:00 6.1 9 Norte 10 Norte 0 940.2 -0.5 98
2020-01-30 02:00:00 6.8 9 Nordeste 11 Norte 0 940.2 -0.4 98
2020-01-30 01:00:00 6.8 7 Norte 10 Norte 0 940.5 -0.1 97
2020-01-30 00:00:00 7 9 Norte 11 Norte 0 940.7 0.4 97
2020-01-29 23:00:00 7 10 Norte 12 Norte 0 940.6 0.8 96
2020-01-29 22:00:00 7.7 7 Norte 12 Norte 0 940.6 1.4 93
2020-01-29 21:00:00 8.3 7 Norte 13 Norte 0 940.3 1.4 92
2020-01-29 20:00:00 9.2 9 Norte 12 Norte 0 939.8 1 88
2020-01-29 19:00:00 10.3 5 Norte 13 Norte 0 939.2 0.6 85
2020-01-29 18:00:00 11.8 11 Norte 26 Norte 0 938.9 0.1 80
2020-01-29 17:00:00 13.1 21 Norte 28 Norte 0 938.8 -0.7 71
2020-01-29 16:00:00 12.7 11 Norte -- -- 0 938.6 -1.5 78
2020-01-29 15:00:00 13 16 Norte 24 Norte 0 938.8 -1.9 75
2020-01-29 14:00:00 11.8 17 Norte 26 Nordeste 0 939.5 -1.3 83
2020-01-29 13:00:00 11.6 18 Norte 26 Norte 0 940.1 -0.5 88
2020-01-29 12:00:00 10.5 19 Norte 30 Norte 0 940.7 0.3 95
2020-01-29 11:00:00 10 19 Norte 25 Norte 0 940.8 1.2 97
2020-01-29 10:00:00 9.6 13 Norte 18 Norte 0 940.6 1.4 98
2020-01-29 09:00:00 9.3 13 Norte 22 Noroeste 0 940.4 1.5 98
2020-01-29 08:00:00 9.1 15 Noroeste 24 Norte 0 939.6 0.7 97
2020-01-29 07:00:00 9.3 16 Norte 30 Noroeste 0 939.2 0.2 96
2020-01-29 06:00:00 9.4 22 Norte 35 Norte 0 938.9 -0.2 95
2020-01-29 05:00:00 9.4 22 Norte 36 Norte 0 938.9 -0.4 94
2020-01-29 04:00:00 9.7 25 Noroeste 34 Norte 0 939 -0.5 93
2020-01-29 03:00:00 9.7 21 Noroeste 30 Noroeste 0 939.1 -0.3 93
2020-01-29 02:00:00 9.7 22 Noroeste 32 Noroeste 0 939.3 -0.2 93
2020-01-29 01:00:00 9.7 22 Noroeste 31 Noroeste 0 939.5 0.2 94
2020-01-29 00:00:00 9.7 22 Noroeste 36 Noroeste 0 939.4 0.2 95
2020-01-28 23:00:00 9.6 26 Norte 38 Norte 0 939.5 0.5 96
2020-01-28 22:00:00 9.4 25 Norte 38 Noroeste 0 939.3 0.7 96
2020-01-28 21:00:00 9.7 22 Norte 32 Norte 0 939.2 0.8 95
2020-01-28 20:00:00 9.8 22 Norte 33 Noroeste 0 939 0.6 95
2020-01-28 19:00:00 9.8 20 Norte 34 Norte 0 938.6 0.2 94
2020-01-28 18:00:00 10.4 27 Norte 41 Norte 0 938.4 -0.2 91
2020-01-28 17:00:00 10.5 21 Norte 36 Norte 0 938.4 -0.5 91
2020-01-28 16:00:00 10.8 27 Noroeste 44 Norte 0 938.4 -1.1 88
2020-01-28 15:00:00 10.8 29 Noroeste 40 Noroeste 0 938.6 -1.3 87
2020-01-28 14:00:00 10.2 29 Norte 48 Norte 0 938.9 -0.8 89
2020-01-28 13:00:00 9.8 30 Norte 48 Noroeste 0 939.5 0.2 90
2020-01-28 12:00:00 9.5 29 Norte 45 Norte 0 939.9 1 92
2020-01-28 11:00:00 9.3 26 Norte 39 Noroeste 0 939.7 1.2 91
2020-01-28 10:00:00 8.8 21 Noroeste 33 Noroeste 0 939.3 1.2 91
2020-01-28 09:00:00 8.5 23 Noroeste 35 Norte 0 938.9 0.9 92
2020-01-28 08:00:00 8.2 23 Noroeste 39 Noroeste 0 938.5 0.8 93
2020-01-28 07:00:00 8 23 Norte 38 Norte 0 938.1 0.1 94
2020-01-28 06:00:00 8.1 27 Norte 44 Norte 0 938 -0.4 92
2020-01-28 05:00:00 8.1 26 Noroeste 40 Noroeste 0 937.7 -0.6 90
2020-01-28 04:00:00 8.2 25 Noroeste 39 Noroeste 0 938 -0.9 88
2020-01-28 03:00:00 8.2 28 Noroeste 41 Noroeste 0 938.4 -0.5 87
2020-01-28 02:00:00 7.9 24 Noroeste 36 Noroeste 0 938.3 -0.9 86
2020-01-28 01:00:00 7.6 24 Noroeste 43 Noroeste 0 938.9 -0.3 85
2020-01-28 00:00:00 7.4 19 Noroeste 33 Noroeste 0 938.9 0.3 86
2020-01-27 23:00:00 7.1 14 Noroeste 24 Noroeste 0 939.2 0.7 87
2020-01-27 22:00:00 7.4 13 Norte 26 Noroeste 0 939.2 0.9 85
2020-01-27 21:00:00 7.7 17 Norte 24 Norte 0 938.6 0.5 82
2020-01-27 20:00:00 7 12 Noroeste 25 Norte 0 938.5 0.2 86
2020-01-27 19:00:00 8 15 Norte 27 Norte 0 938.3 0 81
2020-01-27 18:00:00 8.9 14 Norte 29 Norte 0 938.1 -0.5 78
2020-01-27 17:00:00 9 21 Norte 41 Norte 0 938.3 -0.5 75
2020-01-27 16:00:00 9.9 24 Norte 48 Norte 0 938.3 -1.4 68
2020-01-27 15:00:00 9 35 Norte 51 Norte 0 938.6 -2.2 71
2020-01-27 14:00:00 8.8 24 Norte 39 Norte 0 938.8 -2.1 74
2020-01-27 13:00:00 7.8 16 Norte 24 Norte 0 939.7 -0.8 83
2020-01-27 12:00:00 5.6 13 Norte 23 Norte 0 940.8 0.6 93
2020-01-27 11:00:00 3.5 14 Norte 21 Norte 0 940.9 0.5 98
2020-01-27 10:00:00 2.7 12 Norte 19 Norte 0 940.5 0.7 96
2020-01-27 09:00:00 2 9 Nordeste 14 Nordeste 0 940.2 0.9 98
2020-01-27 08:00:00 2.4 9 Norte 17 Nordeste 0 940.4 0.8 98
2020-01-27 07:00:00 2.6 11 Norte 18 Norte 0 939.8 -0.1 98
2020-01-27 06:00:00 2.4 12 Norte 17 Norte 0 939.3 -0.6 98
2020-01-27 05:00:00 2.3 9 Norte 14 Norte 0 939.6 -0.6 98
2020-01-27 04:00:00 1.4 7 Nordeste 12 Nordeste 0 939.9 -0.7 98
2020-01-27 03:00:00 1.9 9 Norte 13 Norte 0 939.9 -1 98
2020-01-27 02:00:00 2.6 9 Norte 12 Norte 0 940.2 -0.4 98
2020-01-27 01:00:00 2 6 Noroeste 13 Norte 0 940.6 0.4 97
2020-01-27 00:00:00 2.6 10 Norte 12 Norte 0 940.9 1 96
2020-01-26 23:00:00 3.6 10 Norte 14 Norte 0 940.6 1.3 95
2020-01-26 22:00:00 4.1 10 Norte 12 Norte 0 940.2 1.4 91
2020-01-26 21:00:00 4.7 8 Norte 13 Noroeste 0 939.9 1.8 91
2020-01-26 20:00:00 5.9 7 Norte 13 Nordeste 0 939.3 1.6 87
2020-01-26 19:00:00 6.3 10 Nordeste 14 Norte 0 938.8 1.2 86
2020-01-26 18:00:00 8.5 14 Norte 28 Norte 0 938.1 0.5 78
2020-01-26 17:00:00 10.4 19 Norte 28 Norte 0 937.7 -0.3 68
2020-01-26 16:00:00 9.8 17 Norte 27 Norte 0 937.6 -0.7 68
2020-01-26 15:00:00 9.6 20 Norte 29 Norte 0 937.6 -0.7 74
2020-01-26 14:00:00 9.1 20 Norte 28 Norte 0 938 -0.2 74
2020-01-26 13:00:00 8.4 18 Norte 32 Norte 0 938.3 0.7 82
2020-01-26 12:00:00 8.7 21 Norte 28 Nordeste 0 938.3 1.4 83
2020-01-26 11:00:00 7.1 19 Norte 27 Norte 0 938.2 2 94
2020-01-26 10:00:00 6.5 16 Norte 24 Norte 0 937.6 2.5 96
2020-01-26 09:00:00 6.1 16 Norte 23 Norte 0 936.9 2.2 97
2020-01-26 08:00:00 6 12 Norte 21 Norte 0 936.2 1.8 97
2020-01-26 07:00:00 6.1 14 Norte 27 Norte 0 935.1 1 98
2020-01-26 06:00:00 6.1 19 Norte 26 Norte 0 934.7 0.7 98
2020-01-26 05:00:00 6.1 14 Norte 20 Norte 0 934.4 0.6 98
2020-01-26 04:00:00 6.2 12 Norte 21 Norte 0 934.1 0.3 98
2020-01-26 03:00:00 6.3 13 Norte 18 Norte 0.2 934 0.4 97
2020-01-26 02:00:00 6.2 7 Noroeste 10 Noroeste 0 933.8 0.2 97
2020-01-26 01:00:00 6.1 5 Noroeste 9 Noroeste 0 933.8 0.4 96
2020-01-26 00:00:00 6.5 8 Noroeste 15 Noroeste 0 933.6 0.5 93
2020-01-25 23:00:00 6.9 8 Oeste 11 Oeste 0 933.6 1 94
2020-01-25 22:00:00 7 6 Oeste 9 Oeste 0 933.4 1.2 95
2020-01-25 21:00:00 7 7 Noroeste 10 Oeste 0.6 933.1 1.3 96
2020-01-25 20:00:00 7.2 4 Sudoeste 8 Sudoeste 0.2 932.6 0.9 96
2020-01-25 19:00:00 7.5 4 Sudoeste 11 Sudoeste 0 932.2 0.3 93
2020-01-25 18:00:00 7.8 5 Sudoeste 13 Sur 0.2 931.8 -0.5 90
2020-01-25 17:00:00 7.8 4 Sudoeste 11 Oeste 0.2 931.7 -1 88
2020-01-25 16:00:00 8.2 6 Oeste 16 Noroeste 0.2 931.9 -1.6 86
2020-01-25 15:00:00 8.2 11 Noroeste 16 Noroeste 0.2 932.3 -1.7 88
2020-01-25 14:00:00 7.7 9 Oeste 19 Oeste 0.4 932.7 -1.4 88
2020-01-25 13:00:00 7.7 15 Oeste 24 Oeste 1.4 933.5 -0.3 95
2020-01-25 12:00:00 7.4 9 Sudoeste 23 Sudoeste 0.2 934 0.6 95
2020-01-25 11:00:00 6.9 11 Sudoeste 25 Sudoeste 0.2 934.1 0.7 96
2020-01-25 10:00:00 6.7 15 Sur 26 Sur 0 933.8 0.8 94
2020-01-25 09:00:00 6.4 13 Sur 26 Sudoeste 0 933.4 0.4 95
2020-01-25 08:00:00 6.1 12 Sudoeste 21 Sur 0 933.4 0.6 96
2020-01-25 07:00:00 6.4 10 Sudoeste 20 Sur 0 933 -0.2 96
2020-01-25 06:00:00 6.5 12 Sudoeste 21 Sudoeste 0.2 933 -0.5 97
2020-01-25 05:00:00 6.6 13 Sudoeste 26 Sudoeste 0.8 932.8 -0.9 97
2020-01-25 04:00:00 6.7 14 Sudoeste 26 Sudoeste 0 933.2 -1 96
2020-01-25 03:00:00 6.8 14 Sudoeste 26 Sur 0 933.5 -1 95
2020-01-25 02:00:00 6.7 14 Sudoeste 24 Sur 0 933.7 -1.1 94
2020-01-25 01:00:00 6.8 14 Sur 29 Sudoeste 0 934.2 -0.7 93
2020-01-25 00:00:00 6.6 14 Sudoeste 23 Sudoeste 0 934.5 -0.3 94
2020-01-24 23:00:00 6.5 12 Sudoeste 23 Sur 0 934.8 0 94
2020-01-24 22:00:00 7.2 11 Sudoeste 23 Sudoeste 0 934.9 0.5 91
2020-01-24 21:00:00 7.4 10 Sudoeste 20 Sur 0 934.8 0.4 90
2020-01-24 20:00:00 7.2 9 Sur 16 Sur 0 934.8 0.4 91
2020-01-24 19:00:00 7.6 9 Sur 13 Sur 0 934.4 -0.1 90
2020-01-24 18:00:00 8.3 6 Sur 18 Sudoeste 0 934.4 -0.4 85
2020-01-24 17:00:00 8.6 10 Sudoeste 21 Sudoeste 0 934.4 -1.2 82
2020-01-24 16:00:00 8.8 13 Sudoeste 22 Sur 0 934.5 -1.9 81
2020-01-24 15:00:00 8.1 12 Sur 23 Sudoeste 0 934.8 -2.1 84
2020-01-24 14:00:00 7.9 13 Sudoeste 24 Sudoeste 0 935.6 -1.2 85
2020-01-24 13:00:00 7.4 13 Sudoeste 29 Sudoeste 0 936.4 -0.1 84
2020-01-24 12:00:00 6.6 14 Sudoeste 26 Sudoeste 0 936.9 0.7 87
2020-01-24 11:00:00 6.4 12 Sudoeste 22 Sudoeste 0 936.8 1 87
2020-01-24 10:00:00 5.1 8 Sudoeste 19 Sudoeste 0 936.5 1.4 92
2020-01-24 09:00:00 4 10 Sudoeste 17 Sudoeste 0 936.2 1.2 92
2020-01-24 08:00:00 4.2 9 Sur 22 Sur 0 935.8 0.7 92
2020-01-24 07:00:00 4.5 11 Sur 29 Sur 0 935.1 -0.1 93
2020-01-24 06:00:00 4.7 15 Sur 31 Sur 0 935 -0.6 95
2020-01-24 05:00:00 4.8 16 Sur 27 Sur 0 935.1 -0.4 94
2020-01-24 04:00:00 4.9 16 Sur 30 Sur 0 935.2 -0.4 93
2020-01-24 03:00:00 5.3 14 Sur 29 Sur 0 935.6 0.1 93
2020-01-24 02:00:00 6 15 Sur 30 Sudoeste 0 935.5 0.1 90
2020-01-24 01:00:00 6.3 17 Sur 29 Sur 0 935.6 0.4 89
2020-01-24 00:00:00 6.2 16 Sur 33 Sur 0 935.5 0.6 91
2020-01-23 23:00:00 6.1 16 Sur 30 Sur 0 935.4 1 93
2020-01-23 22:00:00 6.1 14 Sur 27 Sudoeste 0 935.2 1.1 92
2020-01-23 21:00:00 6.1 12 Sur 24 Sur 0 934.9 1 87
2020-01-23 20:00:00 6.6 14 Sudoeste 28 Sudoeste 0 934.4 1 85
2020-01-23 19:00:00 6.8 12 Sur 21 Sudoeste 0 934.1 1 84
2020-01-23 18:00:00 8.2 11 Sudoeste 24 Sur 0 933.9 0.6 78
2020-01-23 17:00:00 9.3 16 Sur 30 Sur 0 933.4 -0.4 71
2020-01-23 16:00:00 9.8 18 Sur 32 Sur 0 933.1 -1.3 68
2020-01-23 15:00:00 9.7 14 Sudoeste 31 Sur 0 933.3 -1.8 71
2020-01-23 14:00:00 8.7 16 Sudoeste 32 Sudoeste 0 933.8 -1.1 78
2020-01-23 13:00:00 7.7 17 Sudoeste 30 Sudoeste 0 934.4 0 81
2020-01-23 12:00:00 6.9 16 Sudoeste 32 Sudoeste 0 935.1 1.2 84
2020-01-23 11:00:00 5.6 15 Sudoeste 39 Sur 0 934.9 1.6 90
2020-01-23 10:00:00 5 12 Sur 24 Sudoeste 0 934.4 1.4 91
2020-01-23 09:00:00 3.7 14 Sudoeste 27 Sudoeste 0 933.9 1 98
2020-01-23 08:00:00 3.3 12 Sudoeste 24 Sur 0 933.3 0.5 98
2020-01-23 07:00:00 0.7 5 Sur 9 Sur 0 933 0 96
2020-01-23 06:00:00 0.4 3 Oeste 8 Sudoeste 0 932.9 -0.5 95
2020-01-23 05:00:00 0.5 3 Sudeste 9 Este 0 932.8 -0.9 95
2020-01-23 04:00:00 1.1 7 Sudeste 9 Sudeste 0 933 -0.6 94
2020-01-23 03:00:00 1.4 8 Este 14 Sudeste 0 933.4 0 91
2020-01-23 02:00:00 2.3 9 Sudeste 16 Sudeste 0 933.7 0.7 91
2020-01-23 01:00:00 1.9 9 Sudeste 13 Sudeste 0 933.6 0.6 94
2020-01-23 00:00:00 2.1 7 Sudeste 20 Sudeste 0 933.4 0.8 92
2020-01-22 23:00:00 2.9 14 Sudeste 19 Sudeste 0 933 0.7 91
2020-01-22 22:00:00 3 8 Sudeste 12 Este 0 933 0.9 90
2020-01-22 21:00:00 4.3 10 Sudeste 22 Sudeste 0 932.6 1 87
2020-01-22 20:00:00 4.8 14 Sudeste 20 Sur 0 932.3 0.9 88
2020-01-22 19:00:00 5.2 9 Sur 17 Sur 0 932.1 0.5 87
2020-01-22 18:00:00 7.9 11 Sur 24 Sur 0 931.6 -0.5 75
2020-01-22 17:00:00 9.4 14 Sudoeste 27 Sudoeste 0 931.4 -1.3 65
2020-01-22 16:00:00 9.7 16 Sur 31 Sur 0 931.6 -1.9 67
2020-01-22 15:00:00 9.9 17 Sur 33 Sur 0 932.1 -1.9 67
2020-01-22 14:00:00 9.7 18 Sur 32 Sur 0 932.7 -1.5 74
2020-01-22 13:00:00 8.4 17 Sur 35 Sur 0 933.5 -0.5 76
2020-01-22 12:00:00 7.4 25 Sur 42 Sur 0 934 0.6 83
2020-01-22 11:00:00 7 22 Sur 41 Sur 0 934.2 1.3 88
2020-01-22 10:00:00 6 11 Sur 26 Sur 0 934 1.8 93
2020-01-22 09:00:00 5.4 19 Sur 36 Sur 0 933.4 1.3 94
2020-01-22 08:00:00 5.2 19 Sur 32 Sur 0 932.9 0.7 94
2020-01-22 07:00:00 5.2 20 Sur 31 Sur 0 932.2 -0.3 95
2020-01-22 06:00:00 5.4 17 Sur 31 Sur 0 932.1 -0.1 95
2020-01-22 05:00:00 5.1 19 Sur 34 Sur 0.8 932.2 0.1 95
2020-01-22 04:00:00 5.3 17 Sur 31 Sur 0.2 932.5 0.4 95
2020-01-22 03:00:00 5.2 23 Sur 36 Sur 0 932.2 0.2 95
2020-01-22 02:00:00 5.1 20 Sur 31 Sur 0.2 932.1 0.6 96
2020-01-22 01:00:00 4.7 17 Sur 34 Sur 0 932.1 0.8 93
2020-01-22 00:00:00 4.8 23 Sur 36 Sur 0 932 0.8 91